Time;durP1;ratioP1;P1;durP2;ratioP2;P2;SDS_P1;SDS_P2;PMS_P1;PMS_P2;Temp;Humidity;BMP_temperature;BMP_pressure;BME280_temperature;BME280_humidity;BME280_pressure;Samples;Min_cycle;Max_cycle;Signal;HPM_P1;HPM_P2
2023/09/14 00:02:17;;;;;;;0.10;0.10;;;;;;;;;;5096255;28;20089;-44
2023/09/14 00:04:42;;;;;;;0.10;0.10;;;;;;;;;;5096988;28;20404;-42
2023/09/14 00:07:08;;;;;;;0.15;0.15;;;;;;;;;;5096307;28;20125;-42
2023/09/14 00:09:33;;;;;;;0.10;0.10;;;;;;;;;;5095520;28;20052;-42
2023/09/14 00:11:59;;;;;;;0.10;0.10;;;;;;;;;;5095918;28;20055;-42
2023/09/14 00:14:25;;;;;;;0.10;0.10;;;;;;;;;;5115541;28;20099;-43
2023/09/14 00:16:50;;;;;;;0.10;0.10;;;;;;;;;;5117523;28;20043;-42
2023/09/14 00:19:16;;;;;;;0.10;0.10;;;;;;;;;;5116096;28;20122;-43
2023/09/14 00:21:42;;;;;;;0.10;0.10;;;;;;;;;;5116875;28;20384;-43
2023/09/14 00:24:07;;;;;;;0.10;0.10;;;;;;;;;;5109179;28;20550;-42
2023/09/14 00:26:33;;;;;;;0.10;0.10;;;;;;;;;;5110269;28;20683;-42
2023/09/14 00:28:58;;;;;;;0.10;0.10;;;;;;;;;;5115994;28;20289;-42
2023/09/14 00:31:24;;;;;;;0.10;0.10;;;;;;;;;;5117732;27;20047;-41
2023/09/14 00:33:50;;;;;;;0.10;0.10;;;;;;;;;;5122318;27;20042;-42
2023/09/14 00:36:15;;;;;;;0.10;0.10;;;;;;;;;;5129243;27;20070;-43
2023/09/14 00:38:41;;;;;;;0.10;0.10;;;;;;;;;;5105340;27;20062;-42
2023/09/14 00:41:06;;;;;;;0.10;0.10;;;;;;;;;;5121735;27;20531;-43
2023/09/14 00:43:34;;;;;;;0.10;0.10;;;;;;;;;;5105969;28;20051;-44
2023/09/14 00:45:59;;;;;;;0.00;0.00;;;;;;;;;;5097217;28;20052;-43
2023/09/14 00:48:25;;;;;;;0.10;0.10;;;;;;;;;;5096437;28;20079;-45
2023/09/14 00:50:50;;;;;;;0.10;0.10;;;;;;;;;;5095799;28;20050;-43
2023/09/14 00:53:16;;;;;;;0.10;0.10;;;;;;;;;;5104357;28;20055;-42
2023/09/14 00:55:43;;;;;;;0.10;0.10;;;;;;;;;;5122783;27;21034;-44
2023/09/14 00:58:14;;;;;;;0.10;0.10;;;;;;;;;;5122906;27;20055;-42
2023/09/14 01:00:40;;;;;;;0.10;0.10;;;;;;;;;;5096194;28;20066;-42
2023/09/14 01:03:06;;;;;;;0.10;0.10;;;;;;;;;;5095853;28;20044;-44
2023/09/14 01:05:31;;;;;;;0.10;0.10;;;;;;;;;;5097036;28;20043;-43
2023/09/14 01:07:58;;;;;;;0.10;0.10;;;;;;;;;;5095919;28;20061;-42
2023/09/14 01:10:23;;;;;;;0.10;0.10;;;;;;;;;;5095273;28;20079;-43
2023/09/14 01:12:49;;;;;;;0.10;0.10;;;;;;;;;;5095975;28;20052;-43
2023/09/14 01:18:00;;;;;;;1.15;0.13;;;;;;;;;;5174366;27;20527;-43
2023/09/14 01:20:35;;;;;;;0.10;0.10;;;;;;;;;;5152514;27;20046;-42
2023/09/14 01:23:12;;;;;;;0.10;0.10;;;;;;;;;;5152561;27;20045;-42
2023/09/14 01:25:40;;;;;;;0.43;0.40;;;;;;;;;;5165911;27;20070;-43
2023/09/14 01:28:07;;;;;;;0.10;0.10;;;;;;;;;;5166827;27;20053;-43
2023/09/14 01:30:32;;;;;;;0.10;0.10;;;;;;;;;;5152140;27;20058;-42
2023/09/14 01:32:58;;;;;;;0.10;0.10;;;;;;;;;;5152857;27;20038;-43
2023/09/14 01:35:25;;;;;;;0.10;0.10;;;;;;;;;;5152152;27;20042;-42
2023/09/14 01:37:52;;;;;;;0.10;0.10;;;;;;;;;;5150904;27;20047;-43
2023/09/14 01:40:17;;;;;;;0.10;0.10;;;;;;;;;;5151484;27;20050;-42
2023/09/14 01:42:43;;;;;;;0.10;0.10;;;;;;;;;;5151871;27;20102;-42
2023/09/14 01:45:09;;;;;;;0.10;0.10;;;;;;;;;;5152848;27;20081;-44
2023/09/14 01:47:35;;;;;;;0.10;0.10;;;;;;;;;;5149844;27;20091;-42
2023/09/14 01:50:01;;;;;;;0.10;0.10;;;;;;;;;;5130923;27;20046;-42
2023/09/14 01:52:26;;;;;;;0.10;0.10;;;;;;;;;;5131464;27;20108;-42
2023/09/14 01:54:52;;;;;;;0.10;0.10;;;;;;;;;;5151432;27;20125;-43
2023/09/14 01:57:17;;;;;;;0.10;0.10;;;;;;;;;;5151926;27;20050;-42
2023/09/14 01:59:43;;;;;;;0.10;0.10;;;;;;;;;;5151634;27;20730;-43
2023/09/14 02:02:08;;;;;;;0.10;0.10;;;;;;;;;;5151624;27;20055;-44
2023/09/14 02:04:34;;;;;;;0.30;0.10;;;;;;;;;;5151666;27;20049;-43
2023/09/14 02:06:59;;;;;;;0.10;0.10;;;;;;;;;;5151674;27;20046;-43
2023/09/14 02:09:25;;;;;;;0.10;0.10;;;;;;;;;;5151304;27;20050;-43
2023/09/14 02:11:50;;;;;;;0.10;0.10;;;;;;;;;;5151560;27;20049;-42
2023/09/14 02:14:16;;;;;;;0.10;0.10;;;;;;;;;;5151430;27;20064;-43
2023/09/14 02:16:42;;;;;;;0.10;0.10;;;;;;;;;;5152081;27;20038;-44
2023/09/14 02:19:07;;;;;;;0.10;0.10;;;;;;;;;;5151194;27;20050;-44
2023/09/14 02:21:34;;;;;;;0.10;0.10;;;;;;;;;;5150687;27;20490;-42
2023/09/14 02:24:00;;;;;;;0.15;0.15;;;;;;;;;;5156972;27;20073;-42
2023/09/14 02:26:25;;;;;;;0.10;0.10;;;;;;;;;;5158397;27;20043;-42
2023/09/14 02:28:51;;;;;;;0.10;0.10;;;;;;;;;;5139583;27;20447;-44
2023/09/14 02:31:17;;;;;;;0.10;0.10;;;;;;;;;;5137682;27;20460;-43
2023/09/14 02:33:43;;;;;;;0.10;0.10;;;;;;;;;;5137240;27;20051;-44
2023/09/14 02:36:09;;;;;;;0.10;0.10;;;;;;;;;;5136181;27;20054;-44
2023/09/14 02:38:34;;;;;;;0.10;0.10;;;;;;;;;;5135622;27;20477;-43
2023/09/14 02:41:00;;;;;;;0.10;0.10;;;;;;;;;;5136407;27;20510;-43
2023/09/14 02:43:25;;;;;;;0.10;0.10;;;;;;;;;;5135949;27;20069;-44
2023/09/14 02:45:51;;;;;;;0.10;0.10;;;;;;;;;;5136752;27;20522;-42
2023/09/14 02:48:16;;;;;;;0.20;0.20;;;;;;;;;;5136450;27;20420;-42
2023/09/14 02:50:42;;;;;;;0.10;0.10;;;;;;;;;;5136830;27;20050;-42
2023/09/14 02:53:08;;;;;;;0.20;0.20;;;;;;;;;;5136697;27;20300;-44
2023/09/14 02:55:34;;;;;;;0.10;0.10;;;;;;;;;;5136701;27;20415;-43
2023/09/14 02:58:00;;;;;;;0.10;0.10;;;;;;;;;;5137172;27;20571;-43
2023/09/14 03:00:26;;;;;;;0.10;0.10;;;;;;;;;;5134392;27;20038;-55
2023/09/14 03:02:51;;;;;;;0.10;0.10;;;;;;;;;;5136635;27;20050;-56
2023/09/14 03:05:17;;;;;;;0.10;0.10;;;;;;;;;;5136693;27;20089;-56
2023/09/14 03:07:43;;;;;;;0.10;0.10;;;;;;;;;;5136197;27;20047;-56
2023/09/14 03:10:09;;;;;;;0.10;0.10;;;;;;;;;;5136386;27;20162;-55
2023/09/14 03:12:35;;;;;;;0.20;0.20;;;;;;;;;;5136790;27;20039;-55
2023/09/14 03:15:00;;;;;;;0.10;0.10;;;;;;;;;;5136374;27;20057;-55
2023/09/14 03:17:26;;;;;;;0.10;0.10;;;;;;;;;;5136320;27;20046;-55
2023/09/14 03:19:53;;;;;;;0.10;0.10;;;;;;;;;;5137124;27;20174;-56
2023/09/14 03:22:18;;;;;;;0.10;0.10;;;;;;;;;;5123196;27;20046;-56
2023/09/14 03:24:44;;;;;;;0.10;0.10;;;;;;;;;;5131676;27;20363;-55
2023/09/14 03:27:09;;;;;;;0.10;0.10;;;;;;;;;;5118278;27;20370;-56
2023/09/14 03:29:35;;;;;;;0.20;0.20;;;;;;;;;;5134809;27;20042;-56
2023/09/14 03:32:00;;;;;;;0.10;0.10;;;;;;;;;;5136994;27;20043;-55
2023/09/14 03:34:26;;;;;;;0.22;0.20;;;;;;;;;;5135898;27;20518;-55
2023/09/14 03:36:52;;;;;;;0.10;0.10;;;;;;;;;;5135762;27;20091;-55
2023/09/14 03:39:17;;;;;;;0.10;0.10;;;;;;;;;;5133444;27;20062;-56
2023/09/14 03:41:43;;;;;;;0.10;0.10;;;;;;;;;;5135207;27;20050;-55
2023/09/14 03:44:08;;;;;;;0.10;0.10;;;;;;;;;;5136200;27;20055;-55
2023/09/14 03:46:34;;;;;;;0.10;0.10;;;;;;;;;;5136368;27;20051;-55
2023/09/14 03:49:02;;;;;;;0.10;0.10;;;;;;;;;;5121779;27;20047;-55
2023/09/14 03:51:28;;;;;;;0.10;0.10;;;;;;;;;;5115987;28;20050;-55
2023/09/14 03:53:53;;;;;;;0.10;0.10;;;;;;;;;;5123196;27;20070;-55
2023/09/14 03:56:19;;;;;;;0.10;0.10;;;;;;;;;;5136054;27;20047;-55
2023/09/14 03:58:44;;;;;;;0.10;0.10;;;;;;;;;;5136229;27;20054;-56
2023/09/14 04:01:10;;;;;;;0.10;0.10;;;;;;;;;;5135825;27;20089;-55
2023/09/14 04:03:36;;;;;;;0.10;0.10;;;;;;;;;;5135953;27;20043;-55
2023/09/14 04:06:02;;;;;;;0.10;0.10;;;;;;;;;;5136349;27;20108;-55
2023/09/14 04:08:28;;;;;;;0.10;0.10;;;;;;;;;;5125905;27;20545;-55
2023/09/14 04:10:53;;;;;;;0.10;0.10;;;;;;;;;;5115515;28;20623;-56
2023/09/14 04:13:32;;;;;;;0.30;0.30;;;;;;;;;;5117303;27;20051;-56
2023/09/14 04:15:58;;;;;;;0.10;0.10;;;;;;;;;;5135804;27;20535;-56
2023/09/14 04:18:24;;;;;;;0.20;0.20;;;;;;;;;;5126566;27;20051;-56
2023/09/14 04:20:50;;;;;;;0.10;0.10;;;;;;;;;;5115582;27;20082;-55
2023/09/14 04:23:16;;;;;;;0.10;0.10;;;;;;;;;;5128506;27;20043;-55
2023/09/14 04:25:44;;;;;;;0.10;0.10;;;;;;;;;;5135914;27;20042;-56
2023/09/14 04:28:11;;;;;;;0.10;0.10;;;;;;;;;;5135372;27;20047;-55
2023/09/14 04:30:44;;;;;;;0.10;0.10;;;;;;;;;;5134967;27;20053;-55
2023/09/14 04:33:10;;;;;;;0.10;0.10;;;;;;;;;;5135292;27;20510;-55
2023/09/14 04:35:36;;;;;;;0.10;0.10;;;;;;;;;;5114776;28;20039;-55
2023/09/14 04:38:02;;;;;;;0.10;0.10;;;;;;;;;;5120669;27;20046;-55
2023/09/14 04:40:27;;;;;;;0.55;0.10;;;;;;;;;;5134681;27;20516;-56
2023/09/14 04:42:53;;;;;;;0.10;0.10;;;;;;;;;;5134846;27;20055;-55
2023/09/14 04:45:19;;;;;;;0.10;0.10;;;;;;;;;;5134531;27;20043;-55
2023/09/14 04:47:44;;;;;;;0.10;0.10;;;;;;;;;;5131737;27;20055;-55
2023/09/14 04:50:10;;;;;;;0.57;0.57;;;;;;;;;;5114317;27;20069;-55
2023/09/14 04:52:35;;;;;;;0.10;0.10;;;;;;;;;;5113862;28;20046;-55
2023/09/14 04:55:01;;;;;;;0.10;0.10;;;;;;;;;;5129938;27;20288;-55
2023/09/14 04:57:26;;;;;;;0.10;0.10;;;;;;;;;;5134124;27;20047;-55
2023/09/14 04:59:52;;;;;;;0.10;0.10;;;;;;;;;;5114206;27;20491;-55
2023/09/14 05:02:18;;;;;;;0.10;0.10;;;;;;;;;;5120613;27;20692;-55
2023/09/14 05:04:43;;;;;;;0.10;0.10;;;;;;;;;;5134612;27;20046;-55
2023/09/14 05:07:09;;;;;;;0.20;0.20;;;;;;;;;;5134632;27;20088;-55
2023/09/14 05:09:34;;;;;;;0.10;0.10;;;;;;;;;;5115976;27;20410;-55
2023/09/14 05:12:00;;;;;;;0.10;0.10;;;;;;;;;;5125004;27;20198;-55
2023/09/14 05:14:25;;;;;;;0.10;0.10;;;;;;;;;;5133119;27;20051;-55
2023/09/14 05:16:51;;;;;;;0.10;0.10;;;;;;;;;;5128281;27;20061;-55
2023/09/14 05:19:17;;;;;;;0.10;0.10;;;;;;;;;;5127225;27;20094;-55
2023/09/14 05:21:43;;;;;;;0.10;0.10;;;;;;;;;;5121042;27;20471;-55
2023/09/14 05:24:08;;;;;;;0.10;0.10;;;;;;;;;;5119086;27;20518;-55
2023/09/14 05:26:34;;;;;;;0.10;0.10;;;;;;;;;;5125450;27;20046;-56
2023/09/14 05:28:59;;;;;;;0.10;0.10;;;;;;;;;;5125360;27;20049;-56
2023/09/14 05:31:25;;;;;;;0.10;0.10;;;;;;;;;;5121318;27;20103;-56
2023/09/14 05:33:50;;;;;;;0.10;0.10;;;;;;;;;;5134023;27;20054;-55
2023/09/14 05:36:16;;;;;;;0.10;0.10;;;;;;;;;;5121823;27;20303;-55
2023/09/14 05:38:42;;;;;;;0.10;0.10;;;;;;;;;;5124235;27;20146;-55
2023/09/14 05:41:07;;;;;;;0.10;0.10;;;;;;;;;;5125115;27;20054;-55
2023/09/14 05:43:33;;;;;;;0.10;0.10;;;;;;;;;;5120801;27;20570;-55
2023/09/14 05:46:01;;;;;;;0.10;0.10;;;;;;;;;;5126161;27;20399;-56
2023/09/14 05:48:28;;;;;;;0.10;0.10;;;;;;;;;;5120584;27;20096;-56
2023/09/14 05:50:53;;;;;;;0.10;0.10;;;;;;;;;;5103671;27;20075;-56
2023/09/14 05:53:19;;;;;;;0.10;0.10;;;;;;;;;;5111947;27;20099;-55
2023/09/14 05:55:44;;;;;;;0.10;0.10;;;;;;;;;;5114636;27;20473;-56
2023/09/14 05:58:10;;;;;;;0.10;0.10;;;;;;;;;;5120694;27;20501;-55
2023/09/14 06:00:35;;;;;;;0.10;0.10;;;;;;;;;;5106992;27;20510;-55
2023/09/14 06:03:02;;;;;;;0.10;0.10;;;;;;;;;;5105858;27;20081;-55
2023/09/14 06:05:27;;;;;;;0.10;0.10;;;;;;;;;;5113028;27;20043;-56
2023/09/14 06:07:53;;;;;;;0.10;0.10;;;;;;;;;;5115430;27;20053;-55
2023/09/14 06:10:19;;;;;;;0.10;0.10;;;;;;;;;;5108821;27;20055;-55
2023/09/14 06:12:45;;;;;;;0.10;0.10;;;;;;;;;;5122943;27;20056;-55
2023/09/14 06:15:11;;;;;;;0.10;0.10;;;;;;;;;;5116928;27;20055;-56
2023/09/14 06:17:36;;;;;;;0.10;0.10;;;;;;;;;;5118130;27;20039;-56
2023/09/14 06:20:03;;;;;;;0.10;0.10;;;;;;;;;;5119537;27;20047;-55
2023/09/14 06:22:28;;;;;;;0.10;0.10;;;;;;;;;;5123130;27;20126;-55
2023/09/14 06:24:54;;;;;;;0.10;0.10;;;;;;;;;;5130111;27;20043;-56
2023/09/14 06:27:19;;;;;;;0.10;0.10;;;;;;;;;;5127782;27;20046;-56
2023/09/14 06:29:45;;;;;;;0.10;0.10;;;;;;;;;;5120816;27;20190;-55
2023/09/14 06:32:11;;;;;;;0.10;0.10;;;;;;;;;;5120316;27;20066;-55
2023/09/14 06:34:37;;;;;;;0.10;0.10;;;;;;;;;;5117490;27;20046;-56
2023/09/14 06:37:02;;;;;;;0.10;0.10;;;;;;;;;;5115813;27;20146;-55
2023/09/14 06:39:28;;;;;;;0.10;0.10;;;;;;;;;;5112555;27;20074;-56
2023/09/14 06:41:53;;;;;;;0.10;0.10;;;;;;;;;;5124393;27;20066;-56
2023/09/14 06:44:21;;;;;;;0.10;0.10;;;;;;;;;;5122338;27;20046;-57
2023/09/14 06:46:46;;;;;;;0.00;0.00;;;;;;;;;;5123527;27;20046;-55
2023/09/14 06:49:12;;;;;;;0.10;0.10;;;;;;;;;;5119609;27;21709;-55
2023/09/14 06:51:38;;;;;;;0.10;0.10;;;;;;;;;;5110873;27;20054;-55
2023/09/14 06:54:04;;;;;;;0.10;0.10;;;;;;;;;;5113461;27;20240;-56
2023/09/14 06:56:31;;;;;;;0.10;0.10;;;;;;;;;;5113784;27;20054;-55
2023/09/14 06:58:56;;;;;;;0.10;0.10;;;;;;;;;;5109306;27;20055;-55
2023/09/14 07:01:22;;;;;;;0.10;0.10;;;;;;;;;;5111641;27;20193;-55
2023/09/14 07:03:49;;;;;;;0.10;0.10;;;;;;;;;;5097063;27;20251;-56
2023/09/14 07:06:15;;;;;;;0.43;0.43;;;;;;;;;;5107928;27;20625;-56
2023/09/14 07:08:41;;;;;;;0.10;0.10;;;;;;;;;;5097297;27;20055;-56
2023/09/14 07:11:07;;;;;;;0.10;0.10;;;;;;;;;;5098327;27;20150;-56
2023/09/14 07:13:33;;;;;;;0.15;0.15;;;;;;;;;;5107399;27;20075;-42
2023/09/14 07:15:58;;;;;;;0.10;0.10;;;;;;;;;;5114043;27;20061;-42
2023/09/14 07:18:26;;;;;;;0.10;0.10;;;;;;;;;;5113481;27;20054;-43
2023/09/14 07:20:52;;;;;;;0.10;0.10;;;;;;;;;;5118536;27;20141;-42
2023/09/14 07:23:18;;;;;;;0.10;0.10;;;;;;;;;;5122006;27;20047;-43
2023/09/14 07:25:43;;;;;;;0.10;0.10;;;;;;;;;;5123393;27;20099;-42
2023/09/14 07:28:09;;;;;;;0.20;0.20;;;;;;;;;;5124429;27;20050;-44
2023/09/14 07:30:35;;;;;;;0.10;0.10;;;;;;;;;;5120403;27;20043;-43
2023/09/14 07:33:00;;;;;;;0.10;0.10;;;;;;;;;;5129650;27;20171;-43
2023/09/14 07:35:26;;;;;;;0.10;0.10;;;;;;;;;;5117384;27;20039;-42
2023/09/14 07:37:51;;;;;;;0.10;0.10;;;;;;;;;;5118143;27;20031;-42
2023/09/14 07:40:17;;;;;;;0.10;0.10;;;;;;;;;;5112064;27;20353;-42
2023/09/14 07:42:43;;;;;;;0.10;0.10;;;;;;;;;;5121179;27;20047;-43
2023/09/14 07:45:08;;;;;;;0.10;0.10;;;;;;;;;;5126196;27;20058;-43
2023/09/14 07:47:34;;;;;;;0.10;0.10;;;;;;;;;;5119869;27;20141;-44
2023/09/14 07:49:59;;;;;;;0.13;0.13;;;;;;;;;;5122187;27;20469;-43
2023/09/14 07:52:25;;;;;;;0.10;0.10;;;;;;;;;;5120319;27;20263;-45
2023/09/14 07:54:51;;;;;;;0.10;0.10;;;;;;;;;;5121730;27;20459;-43
2023/09/14 07:57:17;;;;;;;0.10;0.10;;;;;;;;;;5114646;27;20106;-42
2023/09/14 07:59:42;;;;;;;0.10;0.10;;;;;;;;;;5113989;27;20516;-42
2023/09/14 08:02:08;;;;;;;0.10;0.10;;;;;;;;;;5116941;27;20050;-43
2023/09/14 08:04:34;;;;;;;0.13;0.13;;;;;;;;;;5105574;27;20043;-43
2023/09/14 08:07:00;;;;;;;0.30;0.30;;;;;;;;;;5105027;27;20481;-42
2023/09/14 08:09:26;;;;;;;0.10;0.10;;;;;;;;;;5102429;27;20066;-42
2023/09/14 08:11:51;;;;;;;0.10;0.10;;;;;;;;;;5100903;27;20043;-43
2023/09/14 08:14:17;;;;;;;0.10;0.10;;;;;;;;;;5113802;27;20043;-42
2023/09/14 08:16:42;;;;;;;0.10;0.10;;;;;;;;;;5114032;27;20042;-43
2023/09/14 08:19:08;;;;;;;0.10;0.10;;;;;;;;;;5086412;27;20082;-43
2023/09/14 08:21:34;;;;;;;0.10;0.10;;;;;;;;;;5105607;27;20081;-44
2023/09/14 08:23:59;;;;;;;0.10;0.10;;;;;;;;;;5107837;27;20522;-42
2023/09/14 08:26:25;;;;;;;0.10;0.10;;;;;;;;;;5103724;27;20599;-42
2023/09/14 08:28:51;;;;;;;0.10;0.10;;;;;;;;;;5112066;27;20103;-42
2023/09/14 08:31:17;;;;;;;0.10;0.10;;;;;;;;;;5099682;27;20111;-43
2023/09/14 08:33:42;;;;;;;0.15;0.15;;;;;;;;;;5091658;27;20660;-43
2023/09/14 08:36:08;;;;;;;0.10;0.10;;;;;;;;;;5086864;27;20061;-43
2023/09/14 08:38:34;;;;;;;0.10;0.10;;;;;;;;;;5100821;27;20413;-43
2023/09/14 08:41:03;;;;;;;0.10;0.10;;;;;;;;;;5099482;27;20039;-42
2023/09/14 08:43:29;;;;;;;0.10;0.10;;;;;;;;;;5097399;27;20451;-42
2023/09/14 08:45:55;;;;;;;0.15;0.15;;;;;;;;;;5103704;27;20520;-43
2023/09/14 08:48:23;;;;;;;0.10;0.10;;;;;;;;;;5100571;27;20998;-42
2023/09/14 08:50:49;;;;;;;0.10;0.10;;;;;;;;;;5101404;27;20053;-43
2023/09/14 08:53:16;;;;;;;0.10;0.10;;;;;;;;;;5097994;27;20627;-42
2023/09/14 08:55:42;;;;;;;0.10;0.10;;;;;;;;;;5114618;27;20170;-43
2023/09/14 08:58:08;;;;;;;0.10;0.10;;;;;;;;;;5115433;27;20113;-43
2023/09/14 09:00:35;;;;;;;0.10;0.10;;;;;;;;;;5111958;27;20134;-43
2023/09/14 09:03:00;;;;;;;0.20;0.20;;;;;;;;;;5114881;27;20145;-43
2023/09/14 09:05:26;;;;;;;0.10;0.10;;;;;;;;;;5108940;27;20047;-44
2023/09/14 09:07:54;;;;;;;0.13;0.13;;;;;;;;;;5115894;27;20261;-43
2023/09/14 09:10:22;;;;;;;0.10;0.10;;;;;;;;;;5117512;27;20058;-45
2023/09/14 09:12:49;;;;;;;0.10;0.10;;;;;;;;;;5110524;27;20046;-42
2023/09/14 09:15:15;;;;;;;0.10;0.10;;;;;;;;;;5113268;27;20047;-43
2023/09/14 09:17:41;;;;;;;0.10;0.10;;;;;;;;;;5111863;27;20653;-44
2023/09/14 09:20:11;;;;;;;0.10;0.10;;;;;;;;;;5113738;27;20043;-43
2023/09/14 09:22:39;;;;;;;0.15;0.15;;;;;;;;;;5117220;27;20379;-43
2023/09/14 09:25:04;;;;;;;0.47;0.40;;;;;;;;;;5115589;27;20078;-43
2023/09/14 09:27:30;;;;;;;0.10;0.10;;;;;;;;;;5114517;27;20062;-43
2023/09/14 09:29:57;;;;;;;0.20;0.20;;;;;;;;;;5112117;27;20046;-42
2023/09/14 09:32:22;;;;;;;0.10;0.10;;;;;;;;;;5103393;27;20047;-43
2023/09/14 09:34:49;;;;;;;0.20;0.20;;;;;;;;;;5103131;27;20075;-44
2023/09/14 09:37:14;;;;;;;0.10;0.10;;;;;;;;;;5103822;27;20057;-43
2023/09/14 09:39:40;;;;;;;0.10;0.10;;;;;;;;;;5100648;27;20062;-44
2023/09/14 09:42:10;;;;;;;0.10;0.10;;;;;;;;;;5118245;27;20058;-42
2023/09/14 09:44:37;;;;;;;0.10;0.10;;;;;;;;;;5120741;27;20039;-42
2023/09/14 09:47:02;;;;;;;0.10;0.10;;;;;;;;;;5118804;27;20328;-43
2023/09/14 09:49:28;;;;;;;0.10;0.10;;;;;;;;;;5123988;27;20429;-42
2023/09/14 09:51:54;;;;;;;0.10;0.10;;;;;;;;;;5126271;27;20499;-42
2023/09/14 09:54:21;;;;;;;0.10;0.10;;;;;;;;;;5127331;27;20182;-43
2023/09/14 09:56:46;;;;;;;0.10;0.10;;;;;;;;;;5120794;27;20332;-42
2023/09/14 09:59:14;;;;;;;0.10;0.10;;;;;;;;;;5112422;27;20137;-42
2023/09/14 10:01:40;;;;;;;0.10;0.10;;;;;;;;;;5128594;27;20046;-43
2023/09/14 10:04:07;;;;;;;0.10;0.10;;;;;;;;;;5131374;27;20092;-43
2023/09/14 10:06:33;;;;;;;0.20;0.20;;;;;;;;;;5111604;27;20192;-42
2023/09/14 10:08:59;;;;;;;0.10;0.10;;;;;;;;;;5129598;27;21919;-43
2023/09/14 10:11:26;;;;;;;0.10;0.10;;;;;;;;;;5132986;27;20507;-43
2023/09/14 10:13:52;;;;;;;0.20;0.20;;;;;;;;;;5134584;27;20054;-42
2023/09/14 10:16:21;;;;;;;0.10;0.10;;;;;;;;;;5132193;27;20043;-45
2023/09/14 10:18:47;;;;;;;0.10;0.10;;;;;;;;;;5134554;27;20043;-42
2023/09/14 10:21:13;;;;;;;0.32;0.25;;;;;;;;;;5131192;27;20057;-44
2023/09/14 10:23:40;;;;;;;0.10;0.10;;;;;;;;;;5116020;27;20055;-42
2023/09/14 10:26:05;;;;;;;0.10;0.10;;;;;;;;;;5127668;27;20054;-43
2023/09/14 10:28:32;;;;;;;0.13;0.13;;;;;;;;;;5129013;27;20071;-43
2023/09/14 10:30:58;;;;;;;0.10;0.10;;;;;;;;;;5128429;27;20130;-46
2023/09/14 10:33:24;;;;;;;0.30;0.30;;;;;;;;;;5128225;27;20046;-42
2023/09/14 10:35:50;;;;;;;0.10;0.10;;;;;;;;;;5105687;27;20062;-43
2023/09/14 10:38:16;;;;;;;0.20;0.20;;;;;;;;;;5116864;27;20047;-44
2023/09/14 10:40:43;;;;;;;0.10;0.10;;;;;;;;;;5113087;27;20047;-43
2023/09/14 10:43:09;;;;;;;0.10;0.10;;;;;;;;;;5112830;27;21872;-43
2023/09/14 10:45:36;;;;;;;0.25;0.25;;;;;;;;;;5117204;27;20052;-44
2023/09/14 10:48:04;;;;;;;0.10;0.10;;;;;;;;;;5116823;27;20412;-44
2023/09/14 10:50:30;;;;;;;0.10;0.10;;;;;;;;;;5113020;27;20051;-43
2023/09/14 10:52:56;;;;;;;0.10;0.10;;;;;;;;;;5123360;27;20103;-43
2023/09/14 10:55:25;;;;;;;0.20;0.20;;;;;;;;;;5129145;27;20551;-43
2023/09/14 10:57:51;;;;;;;0.10;0.10;;;;;;;;;;5127155;27;20057;-44
2023/09/14 11:00:30;;;;;;;0.10;0.10;;;;;;;;;;5123785;27;20090;-45
2023/09/14 11:03:16;;;;;;;0.10;0.10;;;;;;;;;;5103751;27;20460;-43
2023/09/14 11:05:50;;;;;;;0.10;0.10;;;;;;;;;;5130324;27;20066;-43
2023/09/14 11:08:18;;;;;;;0.10;0.10;;;;;;;;;;5113922;27;20053;-43
2023/09/14 11:10:55;;;;;;;0.20;0.20;;;;;;;;;;5106686;27;20142;-46
2023/09/14 11:16:03;;;;;;;0.10;0.10;;;;;;;;;;5147047;27;20221;-44
2023/09/14 11:18:35;;;;;;;0.10;0.10;;;;;;;;;;5112747;27;20105;-45
2023/09/14 11:21:00;;;;;;;0.10;0.10;;;;;;;;;;5106912;27;20135;-46
2023/09/14 11:23:33;;;;;;;0.10;0.10;;;;;;;;;;5127014;27;20036;-46
2023/09/14 11:25:59;;;;;;;0.10;0.10;;;;;;;;;;5131511;27;20075;-45
2023/09/14 11:28:31;;;;;;;0.20;0.20;;;;;;;;;;5018716;28;20599;-47
2023/09/14 11:30:58;;;;;;;0.10;0.10;;;;;;;;;;5020508;28;20056;-45
2023/09/14 11:33:25;;;;;;;0.10;0.10;;;;;;;;;;5027632;28;20641;-45
2023/09/14 11:35:53;;;;;;;0.10;0.10;;;;;;;;;;5029479;28;20281;-49
2023/09/14 11:38:25;;;;;;;0.10;0.10;;;;;;;;;;5018093;28;20168;-46
2023/09/14 11:40:54;;;;;;;0.10;0.10;;;;;;;;;;5026758;28;20049;-46
2023/09/14 11:43:38;;;;;;;0.10;0.10;;;;;;;;;;4991195;28;20177;-45
2023/09/14 11:46:17;;;;;;;0.10;0.10;;;;;;;;;;5044885;28;20044;-45
2023/09/14 11:48:48;;;;;;;0.10;0.10;;;;;;;;;;5108419;28;20043;-45
2023/09/14 11:51:24;;;;;;;0.10;0.10;;;;;;;;;;5112965;28;20586;-44
2023/09/14 11:53:49;;;;;;;0.10;0.10;;;;;;;;;;5113970;28;20078;-45
2023/09/14 11:56:18;;;;;;;0.10;0.10;;;;;;;;;;5114719;28;20051;-46
2023/09/14 11:58:44;;;;;;;0.10;0.10;;;;;;;;;;5117287;28;20044;-46
2023/09/14 12:01:09;;;;;;;0.10;0.10;;;;;;;;;;5116479;28;20051;-44
2023/09/14 12:03:37;;;;;;;0.10;0.10;;;;;;;;;;5112374;27;20047;-45
2023/09/14 12:06:02;;;;;;;0.10;0.10;;;;;;;;;;5112241;28;20050;-45
2023/09/14 12:08:30;;;;;;;0.10;0.10;;;;;;;;;;5117939;28;20058;-46
2023/09/14 12:10:55;;;;;;;0.10;0.10;;;;;;;;;;5111694;28;20071;-44
2023/09/14 12:13:21;;;;;;;0.10;0.10;;;;;;;;;;5113557;28;20051;-45
2023/09/14 12:15:47;;;;;;;0.10;0.10;;;;;;;;;;5113880;28;20059;-46
2023/09/14 12:18:16;;;;;;;0.10;0.10;;;;;;;;;;5115239;28;20040;-46
2023/09/14 12:20:44;;;;;;;0.10;0.10;;;;;;;;;;5091770;28;20938;-46
2023/09/14 12:23:09;;;;;;;0.10;0.10;;;;;;;;;;5111022;28;20574;-46
2023/09/14 12:25:37;;;;;;;0.10;0.10;;;;;;;;;;5106089;28;20468;-46
2023/09/14 12:28:03;;;;;;;0.10;0.10;;;;;;;;;;5101700;28;20448;-45
2023/09/14 12:30:29;;;;;;;0.10;0.10;;;;;;;;;;5092712;28;20036;-45
2023/09/14 12:32:55;;;;;;;0.10;0.10;;;;;;;;;;5092599;28;20404;-44
2023/09/14 12:35:21;;;;;;;0.17;0.17;;;;;;;;;;5089260;28;20085;-45
2023/09/14 12:37:47;;;;;;;0.10;0.10;;;;;;;;;;5094908;28;20078;-45
2023/09/14 12:40:13;;;;;;;0.13;0.13;;;;;;;;;;5092919;28;20400;-44
2023/09/14 12:42:41;;;;;;;0.10;0.10;;;;;;;;;;5097936;28;20048;-45
2023/09/14 12:45:11;;;;;;;0.10;0.10;;;;;;;;;;5095181;28;20047;-44
2023/09/14 12:47:36;;;;;;;0.10;0.10;;;;;;;;;;5099001;28;20043;-45
2023/09/14 12:50:02;;;;;;;0.10;0.10;;;;;;;;;;5099650;28;20192;-45
2023/09/14 12:52:28;;;;;;;0.10;0.10;;;;;;;;;;5094502;28;20040;-45
2023/09/14 12:54:54;;;;;;;0.17;0.17;;;;;;;;;;5094090;28;20048;-45
2023/09/14 12:57:19;;;;;;;0.10;0.10;;;;;;;;;;5091330;28;20048;-46
2023/09/14 13:00:14;;;;;;;0.10;0.10;;;;;;;;;;5096874;28;20409;-46
2023/09/14 13:02:41;;;;;;;0.17;0.17;;;;;;;;;;5081175;28;20188;-44
2023/09/14 13:05:07;;;;;;;0.10;0.10;;;;;;;;;;5093298;28;20477;-44
2023/09/14 13:07:34;;;;;;;0.10;0.10;;;;;;;;;;5094362;28;20043;-46
2023/09/14 13:10:20;;;;;;;0.10;0.10;;;;;;;;;;5096805;28;20124;-45
2023/09/14 13:12:50;;;;;;;0.10;0.10;;;;;;;;;;5089676;28;20070;-44
2023/09/14 13:15:20;;;;;;;0.20;0.20;;;;;;;;;;5097135;28;20070;-45
2023/09/14 13:17:46;;;;;;;0.10;0.10;;;;;;;;;;5096782;28;20153;-46
2023/09/14 13:20:11;;;;;;;0.10;0.10;;;;;;;;;;5095971;28;20186;-45
2023/09/14 13:22:37;;;;;;;0.10;0.10;;;;;;;;;;5096837;28;20043;-44
2023/09/14 13:25:03;;;;;;;0.10;0.10;;;;;;;;;;5098194;28;20080;-44
2023/09/14 13:27:34;;;;;;;0.10;0.10;;;;;;;;;;5098007;28;21279;-44
2023/09/14 13:30:00;;;;;;;0.10;0.10;;;;;;;;;;5094030;28;20149;-45
2023/09/14 13:32:25;;;;;;;0.10;0.10;;;;;;;;;;5099256;28;20524;-45
2023/09/14 13:34:51;;;;;;;0.10;0.10;;;;;;;;;;5094471;28;20090;-45
2023/09/14 13:37:17;;;;;;;0.10;0.10;;;;;;;;;;5091317;28;20051;-44
2023/09/14 13:39:42;;;;;;;0.10;0.10;;;;;;;;;;5095071;28;20044;-46
2023/09/14 13:42:08;;;;;;;0.10;0.10;;;;;;;;;;5096633;28;20562;-45
2023/09/14 13:44:35;;;;;;;0.10;0.10;;;;;;;;;;5102963;28;20053;-47
2023/09/14 13:47:00;;;;;;;0.10;0.10;;;;;;;;;;5100255;28;20066;-47
2023/09/14 13:49:26;;;;;;;0.10;0.10;;;;;;;;;;5102728;28;20043;-46
2023/09/14 13:51:51;;;;;;;0.10;0.10;;;;;;;;;;5103868;28;20048;-44
2023/09/14 13:54:17;;;;;;;0.10;0.10;;;;;;;;;;5103456;28;20044;-44
2023/09/14 13:56:43;;;;;;;0.10;0.10;;;;;;;;;;5100396;28;20048;-44
2023/09/14 13:59:08;;;;;;;0.10;0.10;;;;;;;;;;5104946;28;20404;-46
2023/09/14 14:01:34;;;;;;;0.15;0.15;;;;;;;;;;5105949;28;20044;-45
2023/09/14 14:03:59;;;;;;;0.10;0.10;;;;;;;;;;5102162;28;20048;-45
2023/09/14 14:06:26;;;;;;;0.10;0.10;;;;;;;;;;5103062;28;20059;-45
2023/09/14 14:08:52;;;;;;;0.10;0.10;;;;;;;;;;5096330;28;20047;-45
2023/09/14 14:11:19;;;;;;;0.13;0.13;;;;;;;;;;5102922;28;20392;-45
2023/09/14 14:13:45;;;;;;;0.10;0.10;;;;;;;;;;5103181;28;20324;-44
2023/09/14 14:16:11;;;;;;;0.10;0.10;;;;;;;;;;5104371;28;20430;-45
2023/09/14 14:18:36;;;;;;;0.10;0.10;;;;;;;;;;5103599;28;20134;-44
2023/09/14 14:21:02;;;;;;;0.10;0.10;;;;;;;;;;5092810;28;20050;-45
2023/09/14 14:23:28;;;;;;;1.55;0.43;;;;;;;;;;5105849;28;20433;-45
2023/09/14 14:25:54;;;;;;;0.10;0.10;;;;;;;;;;5105687;28;20453;-44
2023/09/14 14:28:19;;;;;;;0.10;0.10;;;;;;;;;;5095661;28;20189;-45
2023/09/14 14:30:45;;;;;;;0.10;0.10;;;;;;;;;;5091717;28;20568;-44
2023/09/14 14:33:10;;;;;;;0.20;0.13;;;;;;;;;;5104692;28;20514;-44
2023/09/14 14:35:36;;;;;;;0.15;0.15;;;;;;;;;;5104621;28;20047;-45
2023/09/14 14:38:02;;;;;;;0.30;0.30;;;;;;;;;;5103693;28;20040;-46
2023/09/14 14:40:27;;;;;;;0.20;0.20;;;;;;;;;;5104251;28;20135;-44
2023/09/14 14:42:56;;;;;;;0.10;0.10;;;;;;;;;;5111934;28;20043;-44
2023/09/14 14:45:22;;;;;;;0.20;0.17;;;;;;;;;;5126804;28;20050;-44